Time;durP1;ratioP1;P1;durP2;ratioP2;P2;SDS_P1;SDS_P2;PMS_P1;PMS_P2;Temp;Humidity;BMP_temperature;BMP_pressure;BME280_temperature;BME280_humidity;BME280_pressure;Samples;Min_cycle;Max_cycle;Signal;HPM_P1;HPM_P2
2021/12/10 00:00:42;;;;;;;4.47;3.70;;;3.60;79.80;;;2.50;67.28;93647.69;5089862;28;20219;-82
2021/12/10 00:03:35;;;;;;;4.82;3.55;;;3.50;79.70;;;2.48;67.08;93634.09;5056596;28;20207;-82
2021/12/10 00:06:11;;;;;;;4.63;4.00;;;3.50;79.80;;;2.45;67.07;93631.06;5073031;28;20245;-82
2021/12/10 00:08:46;;;;;;;7.05;4.70;;;3.50;79.80;;;2.42;67.14;93624.44;5040117;28;20289;-83
2021/12/10 00:11:38;;;;;;;5.85;4.32;;;3.50;79.80;;;2.39;67.40;93622.19;5055496;28;20202;-83
2021/12/10 00:14:07;;;;;;;4.90;4.20;;;3.50;79.90;;;2.38;67.44;93611.06;5072322;28;20697;-82
2021/12/10 00:16:37;;;;;;;7.55;4.70;;;3.50;79.90;;;2.42;67.60;93613.28;5072904;28;20205;-83
2021/12/10 00:19:17;;;;;;;4.95;4.22;;;3.50;79.90;;;2.50;67.41;93615.81;5056513;28;20234;-82
2021/12/10 00:21:46;;;;;;;5.25;4.20;;;3.50;79.90;;;2.45;67.25;93607.75;5057556;28;20215;-82
2021/12/10 00:24:16;;;;;;;5.78;4.50;;;3.50;79.90;;;2.50;67.30;93614.03;5052189;28;20216;-82
2021/12/10 00:26:44;;;;;;;5.40;4.25;;;3.50;79.90;;;2.54;67.37;93612.69;5052468;28;20537;-82
2021/12/10 00:29:15;;;;;;;4.85;4.25;;;3.50;79.90;;;2.52;67.17;93604.28;5052649;28;20698;-81
2021/12/10 00:31:51;;;;;;;5.45;4.03;;;3.50;79.90;;;2.56;66.84;93609.94;5089231;28;20261;-82
2021/12/10 00:34:32;;;;;;;4.53;3.70;;;3.50;79.90;;;2.58;66.98;93602.81;5056363;28;20276;-83
2021/12/10 00:37:09;;;;;;;4.55;3.65;;;3.50;79.90;;;2.59;66.82;93606.19;5072398;28;20219;-83
2021/12/10 00:40:04;;;;;;;4.90;3.90;;;3.50;79.90;;;2.52;67.18;93596.53;5056034;28;20304;-82
2021/12/10 00:42:35;;;;;;;4.60;3.70;;;3.60;80.00;;;2.58;67.01;93596.84;5071495;28;20192;-83
2021/12/10 00:45:08;;;;;;;4.30;3.90;;;3.60;80.00;;;2.55;67.24;93591.03;5055775;28;20235;-83
2021/12/10 00:47:36;;;;;;;4.07;3.38;;;3.60;80.00;;;2.63;67.18;93607.47;5056038;28;20219;-83
2021/12/10 00:50:08;;;;;;;3.88;3.47;;;3.60;80.00;;;2.61;66.98;93599.06;5072472;28;20261;-82
2021/12/10 00:52:35;;;;;;;4.50;3.80;;;3.60;80.00;;;2.64;67.12;93593.53;5052106;28;20283;-82
2021/12/10 00:55:06;;;;;;;4.10;3.70;;;3.60;80.00;;;2.65;67.05;93590.78;5069091;28;20307;-82
2021/12/10 00:57:33;;;;;;;4.07;3.63;;;3.60;80.80;;;2.64;66.81;93594.34;5068935;28;20202;-82
2021/12/10 01:00:01;;;;;;;4.43;3.28;;;3.60;80.00;;;2.69;66.92;93593.81;5068520;28;20220;-83
2021/12/10 01:02:28;;;;;;;4.43;3.50;;;3.60;80.00;;;2.66;66.97;93586.38;5054668;28;20229;-83
2021/12/10 01:04:59;;;;;;;3.70;3.25;;;3.60;80.00;;;2.70;67.01;93592.84;5055665;28;20243;-82
2021/12/10 01:07:32;;;;;;;4.55;3.97;;;3.70;80.00;;;2.64;67.10;93583.19;5055330;28;20196;-83
2021/12/10 01:10:09;;;;;;;4.28;3.35;;;3.70;80.00;;;2.67;66.98;93588.00;5038647;28;20223;-82
2021/12/10 01:12:45;;;;;;;4.18;3.75;;;3.70;80.00;;;2.69;66.76;93594.59;5055086;28;20209;-82
2021/12/10 01:15:46;;;;;;;3.72;3.35;;;3.70;80.00;;;2.68;66.98;93590.41;5087812;28;20280;-83
2021/12/10 01:24:17;;;;;;;3.30;3.00;;;3.70;80.00;;;2.66;67.11;93591.56;5037777;28;20244;-83
2021/12/10 01:29:29;;;;;;;3.00;2.72;;;3.60;79.80;;;2.60;66.53;93567.19;5070223;28;20688;-81
2021/12/10 01:31:58;;;;;;;3.42;3.13;;;3.60;79.70;;;2.63;66.84;93579.78;5053860;28;20203;-83
2021/12/10 01:34:25;;;;;;;2.95;2.67;;;3.60;79.70;;;2.62;66.81;93585.94;5054209;28;20219;-82
2021/12/10 01:36:53;;;;;;;3.30;2.78;;;3.70;79.70;;;2.62;66.36;93577.38;5038479;28;20292;-82
2021/12/10 01:39:26;;;;;;;2.92;2.40;;;3.70;79.70;;;2.61;66.95;93575.75;5054946;28;20215;-82
2021/12/10 01:42:01;;;;;;;2.53;2.33;;;3.60;79.70;;;2.62;66.79;93567.81;5071505;28;20247;-81
2021/12/10 01:44:36;;;;;;;2.80;2.53;;;3.60;79.70;;;2.61;66.64;93568.78;5071585;28;20310;-82
2021/12/10 01:47:07;;;;;;;2.47;2.20;;;3.60;79.70;;;2.62;66.63;93575.56;5038992;28;20716;-81
2021/12/10 01:49:34;;;;;;;3.15;2.72;;;3.60;79.80;;;2.64;66.96;93571.03;5071177;28;20233;-82
2021/12/10 01:52:02;;;;;;;2.60;2.40;;;3.60;80.60;;;2.64;66.80;93572.84;5070571;28;20199;-83
2021/12/10 01:54:37;;;;;;;2.88;2.58;;;3.60;79.80;;;2.62;66.89;93560.03;5087966;28;20713;-82
2021/12/10 01:57:05;;;;;;;3.22;2.90;;;3.60;79.80;;;2.66;67.01;93576.84;5071703;28;20260;-82
2021/12/10 01:59:35;;;;;;;3.03;2.83;;;3.60;79.90;;;2.63;66.71;93559.06;5054759;28;20215;-82
2021/12/10 02:02:20;;;;;;;3.00;2.70;;;3.60;79.90;;;2.68;66.57;93558.53;5067734;28;20192;-82
2021/12/10 02:04:48;;;;;;;3.30;3.00;;;3.60;79.90;;;2.67;66.35;93552.56;5099617;28;20227;-83
2021/12/10 02:07:22;;;;;;;3.38;2.95;;;3.60;79.80;;;2.68;66.62;93545.59;5084382;28;20622;-82
2021/12/10 02:09:50;;;;;;;3.28;2.97;;;3.60;79.80;;;2.68;66.60;93543.81;5084602;28;20247;-81
2021/12/10 02:12:21;;;;;;;2.97;2.67;;;3.70;79.80;;;2.67;66.39;93538.81;5093161;28;20278;-83
2021/12/10 02:14:58;;;;;;;3.20;2.90;;;3.60;79.80;;;2.68;66.53;93543.00;5071215;28;20231;-83
2021/12/10 02:17:36;;;;;;;4.45;3.30;;;3.70;79.80;;;2.64;66.52;93532.22;5070140;28;20202;-82
2021/12/10 02:20:13;;;;;;;3.30;2.90;;;3.60;79.70;;;2.67;66.50;93528.47;5087707;28;20246;-82
2021/12/10 02:22:40;;;;;;;3.78;2.97;;;3.70;79.90;;;2.63;66.54;93522.81;5078945;28;20203;-81
2021/12/10 02:25:11;;;;;;;3.65;3.22;;;3.60;79.70;;;2.67;66.62;93534.47;5034143;28;20220;-81
2021/12/10 02:27:38;;;;;;;4.10;3.40;;;3.60;79.60;;;2.67;66.41;93534.47;5034388;28;20180;-82
2021/12/10 02:30:11;;;;;;;3.83;3.42;;;3.60;79.60;;;2.63;66.21;93533.19;5033579;28;20231;-82
2021/12/10 02:32:38;;;;;;;4.30;3.40;;;3.60;79.60;;;2.60;66.34;93522.38;5068803;28;20184;-83
2021/12/10 02:35:11;;;;;;;3.85;3.30;;;3.60;79.50;;;2.62;66.27;93528.19;5052042;28;20223;-81
2021/12/10 02:37:39;;;;;;;3.58;3.28;;;3.60;79.50;;;2.55;66.19;93525.50;5036132;28;20306;-82
2021/12/10 02:40:09;;;;;;;4.45;3.47;;;3.60;79.40;;;2.56;66.08;93530.50;5054750;28;20222;-82
2021/12/10 02:42:37;;;;;;;3.30;3.00;;;3.60;79.40;;;2.49;66.23;93529.59;5072000;28;20194;-82
2021/12/10 02:45:10;;;;;;;3.40;3.10;;;3.60;79.30;;;2.51;66.52;93526.84;5055977;28;20273;-83
2021/12/10 02:47:37;;;;;;;5.13;3.72;;;3.50;79.40;;;2.50;66.37;93528.63;5072750;28;20631;-83
2021/12/10 02:50:08;;;;;;;3.67;3.10;;;3.50;79.40;;;2.48;66.51;93517.66;5056939;28;20310;-83
2021/12/10 02:52:36;;;;;;;3.65;3.35;;;3.50;79.40;;;2.47;66.36;93523.78;5041163;28;20200;-82
2021/12/10 02:55:07;;;;;;;3.97;3.58;;;3.50;79.50;;;2.43;66.48;93509.63;5100659;28;20224;-82
2021/12/10 02:57:34;;;;;;;4.05;3.60;;;3.50;79.50;;;2.45;66.41;93512.00;5080838;28;20200;-83
2021/12/10 03:00:02;;;;;;;4.10;3.70;;;3.40;79.40;;;2.45;66.41;93504.25;5056873;28;20226;-82
2021/12/10 03:02:30;;;;;;;3.75;3.35;;;3.40;79.40;;;2.43;66.07;93506.22;5041379;28;20290;-81
2021/12/10 03:04:57;;;;;;;3.92;3.45;;;3.40;79.40;;;2.44;66.30;93506.06;5040913;28;20692;-82
2021/12/10 03:07:26;;;;;;;4.15;3.38;;;3.40;79.40;;;2.45;66.16;93501.66;5056631;28;20196;-83
2021/12/10 03:09:54;;;;;;;3.95;3.33;;;3.40;79.40;;;2.42;66.43;93497.66;5037992;28;20249;-82
2021/12/10 03:12:22;;;;;;;3.83;3.42;;;3.40;79.40;;;2.41;66.50;93501.22;5053246;28;20208;-82
2021/12/10 03:14:56;;;;;;;4.72;3.65;;;3.40;79.40;;;2.38;65.95;93499.78;5046574;28;20257;-82
2021/12/10 03:17:29;;;;;;;5.20;3.78;;;3.40;79.40;;;2.39;65.96;93492.81;5036812;28;20295;-83
2021/12/10 03:19:58;;;;;;;4.13;3.60;;;3.40;79.40;;;2.37;66.18;93487.81;5056437;28;20234;-81
2021/12/10 03:22:27;;;;;;;4.10;3.70;;;3.40;79.40;;;2.36;66.29;93488.81;5065031;28;20294;-83
2021/12/10 03:24:54;;;;;;;6.05;3.80;;;3.40;79.30;;;2.29;66.03;93479.34;5062910;28;20243;-82
2021/12/10 03:27:22;;;;;;;4.90;3.80;;;3.40;79.30;;;2.32;65.99;93486.75;5052706;28;20555;-82
2021/12/10 03:29:52;;;;;;;4.40;3.40;;;3.30;79.20;;;2.29;66.33;93485.31;5049746;28;20227;-83
2021/12/10 03:32:25;;;;;;;3.67;3.20;;;3.30;79.20;;;2.28;66.13;93480.31;5051487;28;20288;-82
2021/12/10 03:34:53;;;;;;;3.50;3.20;;;3.30;79.30;;;2.20;65.89;93474.25;5054376;28;20334;-82
2021/12/10 03:37:20;;;;;;;3.58;3.25;;;3.30;79.30;;;2.24;66.24;93474.69;5077926;28;20649;-82
2021/12/10 03:39:51;;;;;;;3.42;3.13;;;3.20;79.30;;;2.16;66.45;93465.22;5056541;28;20626;-81
2021/12/10 03:42:20;;;;;;;3.78;3.13;;;3.30;79.30;;;2.22;66.38;93476.63;5081572;28;20198;-82
2021/12/10 03:44:48;;;;;;;3.55;3.25;;;3.20;79.30;;;2.14;66.24;93459.44;5055971;28;22447;-82
2021/12/10 03:47:16;;;;;;;3.53;3.20;;;3.20;79.20;;;2.16;65.84;93475.59;5055950;28;20245;-83
2021/12/10 03:49:43;;;;;;;3.85;3.45;;;3.20;79.10;;;2.12;66.08;93469.13;5055415;28;20218;-82
2021/12/10 03:52:10;;;;;;;3.80;3.35;;;3.20;79.10;;;2.08;65.73;93465.31;5092977;28;20227;-82
2021/12/10 03:54:40;;;;;;;4.03;3.58;;;3.20;79.10;;;2.00;65.87;93461.00;5064560;28;20709;-81
2021/12/10 03:57:09;;;;;;;4.88;3.40;;;3.20;79.10;;;2.03;66.46;93462.44;5055292;28;20196;-83
2021/12/10 03:59:39;;;;;;;3.15;2.83;;;3.10;79.00;;;2.01;66.21;93461.81;5070183;28;20211;-82
2021/12/10 04:02:09;;;;;;;3.92;3.50;;;3.10;79.10;;;1.99;65.94;93471.50;5054896;28;20234;-82
2021/12/10 04:04:45;;;;;;;3.28;2.97;;;3.10;79.20;;;1.97;65.95;93471.69;5072437;28;20213;-82
2021/12/10 04:07:19;;;;;;;4.95;3.30;;;3.10;79.20;;;1.88;66.20;93467.56;5053832;28;20217;-82
2021/12/10 04:09:48;;;;;;;3.58;2.97;;;3.00;79.10;;;1.89;66.06;93462.22;5079043;28;20211;-82
2021/12/10 04:12:17;;;;;;;3.30;3.00;;;3.00;79.10;;;1.93;66.34;93462.69;5069584;28;20233;-82
2021/12/10 04:14:47;;;;;;;3.53;3.00;;;3.00;79.20;;;1.94;66.17;93471.25;5037627;28;20215;-82
2021/12/10 04:17:19;;;;;;;3.67;3.10;;;3.00;79.20;;;1.92;66.29;93472.22;5070492;28;20194;-82
2021/12/10 04:19:50;;;;;;;3.35;3.03;;;3.00;79.20;;;1.85;66.04;93460.97;5077589;28;20223;-82
2021/12/10 04:22:20;;;;;;;3.97;3.30;;;3.00;79.30;;;1.92;66.41;93474.78;5053494;28;20195;-82
2021/12/10 04:24:49;;;;;;;4.18;3.30;;;2.90;79.20;;;1.91;66.17;93467.22;5077455;28;20270;-82
2021/12/10 04:27:17;;;;;;;3.67;3.25;;;3.00;79.20;;;1.91;66.26;93462.84;5070145;28;20207;-82
2021/12/10 04:29:47;;;;;;;4.40;3.58;;;2.90;79.10;;;1.89;66.05;93459.66;5050370;28;20239;-81
2021/12/10 04:32:14;;;;;;;4.32;3.33;;;3.00;79.10;;;1.88;66.21;93454.63;5053441;28;20199;-82
2021/12/10 04:34:41;;;;;;;3.30;3.00;;;2.90;79.10;;;1.83;66.22;93451.78;5052243;28;20299;-82
2021/12/10 04:37:11;;;;;;;5.35;3.60;;;2.90;79.10;;;1.80;65.78;93452.13;5069417;28;20668;-82
2021/12/10 04:39:45;;;;;;;4.07;3.22;;;2.90;79.00;;;1.78;66.37;93454.88;5061829;28;20234;-83
2021/12/10 04:42:23;;;;;;;9.23;5.68;;;2.90;79.00;;;1.74;66.00;93451.03;5060700;28;20195;-82
2021/12/10 04:44:58;;;;;;;8.82;5.28;;;2.80;78.90;;;1.69;65.93;93450.75;5063356;28;20306;-82
2021/12/10 04:47:27;;;;;;;5.55;4.20;;;2.80;78.80;;;1.65;65.88;93446.91;5071223;28;20222;-83
2021/12/10 04:49:57;;;;;;;5.78;3.85;;;2.80;78.90;;;1.62;65.79;93442.09;5070117;28;20317;-83
2021/12/10 04:52:25;;;;;;;3.97;3.38;;;2.70;78.70;;;1.57;66.17;93445.19;5049814;28;20246;-83
2021/12/10 04:54:52;;;;;;;3.88;3.35;;;2.70;78.70;;;1.51;65.99;93441.50;5067094;28;20753;-82
2021/12/10 04:57:19;;;;;;;4.07;3.25;;;2.70;78.80;;;1.44;66.29;93430.25;5050542;28;20196;-83
2021/12/10 04:59:47;;;;;;;4.30;3.53;;;2.60;78.70;;;1.39;65.98;93430.78;5050729;28;20223;-82
2021/12/10 05:02:16;;;;;;;4.20;3.28;;;2.60;78.70;;;1.39;65.70;93432.56;5066526;28;20204;-83
2021/12/10 05:04:47;;;;;;;3.78;3.05;;;2.60;78.70;;;1.34;65.75;93438.22;5050193;28;20305;-82
2021/12/10 05:07:16;;;;;;;5.93;5.20;;;2.60;78.60;;;1.26;65.88;93433.13;5033680;28;20248;-83
2021/12/10 05:09:45;;;;;;;4.50;3.40;;;2.50;78.40;;;1.16;65.75;93430.78;5067687;28;20227;-82
2021/12/10 05:12:13;;;;;;;4.47;3.67;;;2.50;78.40;;;1.14;65.57;93431.94;5070700;28;20657;-82
2021/12/10 05:14:41;;;;;;;18.20;8.68;;;2.40;78.40;;;1.06;66.13;93436.16;5068931;28;20262;-82
2021/12/10 05:17:09;;;;;;;7.85;5.13;;;2.40;78.40;;;0.98;66.18;93432.78;5034385;28;20206;-82
2021/12/10 05:19:39;;;;;;;5.45;4.20;;;2.30;78.30;;;0.94;65.93;93432.31;5038565;28;20219;-82
2021/12/10 05:22:10;;;;;;;6.30;4.40;;;2.20;78.30;;;0.87;65.72;93429.63;5055439;28;20203;-82
2021/12/10 05:24:38;;;;;;;4.78;4.10;;;2.20;78.30;;;0.78;66.10;93426.28;5054605;28;20311;-82
2021/12/10 05:27:05;;;;;;;5.85;3.72;;;2.20;78.20;;;0.75;66.12;93434.34;5054797;28;20250;-83
2021/12/10 05:29:33;;;;;;;4.90;3.60;;;2.10;78.30;;;0.71;66.02;93425.34;5055176;28;20247;-82
2021/12/10 05:32:02;;;;;;;4.90;3.85;;;2.00;78.30;;;0.61;65.92;93414.41;5054916;28;20214;-82
2021/12/10 05:34:30;;;;;;;4.30;3.65;;;2.00;78.30;;;0.60;65.84;93423.16;5054786;28;20681;-82
2021/12/10 05:36:58;;;;;;;5.45;3.80;;;1.90;78.20;;;0.55;66.24;93412.50;5054633;28;20206;-83
2021/12/10 05:39:25;;;;;;;6.53;3.88;;;1.90;78.30;;;0.52;66.04;93416.22;5055294;28;20712;-82
2021/12/10 05:41:54;;;;;;;4.90;4.03;;;1.80;78.30;;;0.44;66.03;93416.25;5070737;28;20203;-81
2021/12/10 05:44:21;;;;;;;6.43;4.72;;;1.80;78.40;;;0.40;66.10;93415.00;5054309;28;20249;-82
2021/12/10 05:46:48;;;;;;;5.80;3.75;;;1.70;78.30;;;0.40;66.00;93418.38;5054743;28;20241;-83
2021/12/10 05:49:17;;;;;;;5.15;4.13;;;1.70;78.30;;;0.36;65.74;93421.47;5067944;28;20216;-81
2021/12/10 05:51:44;;;;;;;4.90;3.92;;;1.70;78.30;;;0.30;65.86;93418.56;5046348;28;20295;-83
2021/12/10 05:54:12;;;;;;;4.65;3.90;;;1.60;78.20;;;0.22;65.60;93416.03;5055056;28;20284;-82
2021/12/10 05:56:39;;;;;;;6.32;3.92;;;1.60;78.20;;;0.18;65.72;93417.31;5067633;28;20295;-83
2021/12/10 05:59:08;;;;;;;12.48;6.82;;;1.50;78.10;;;0.11;65.99;93421.50;5039245;28;20268;-82
2021/12/10 06:01:36;;;;;;;7.28;5.00;;;1.50;78.10;;;0.06;65.78;93418.63;5071490;28;20709;-82
2021/12/10 06:04:04;;;;;;;7.47;5.10;;;1.40;78.20;;;0.01;66.18;93419.13;5100363;28;20216;-81
2021/12/10 06:06:33;;;;;;;5.82;4.95;;;1.40;78.30;;;0.03;66.00;93416.41;5034929;28;20319;-82
2021/12/10 06:09:05;;;;;;;6.82;5.40;;;1.40;78.40;;;0.03;66.12;93429.28;5034764;28;20212;-82
2021/12/10 06:11:33;;;;;;;7.18;4.82;;;1.30;78.50;;;0.01;66.04;93423.47;5065391;28;20191;-83
2021/12/10 06:14:00;;;;;;;7.75;5.13;;;1.30;78.50;;;-0.02;66.26;93427.19;5056883;28;20716;-82
2021/12/10 06:16:28;;;;;;;6.53;4.93;;;1.30;78.50;;;-0.05;65.82;93425.75;5071867;28;20200;-82
2021/12/10 06:18:56;;;;;;;8.00;4.93;;;1.20;78.40;;;-0.05;65.68;93427.50;5066341;28;20227;-84
2021/12/10 06:21:23;;;;;;;6.05;4.80;;;1.20;78.40;;;-0.08;65.88;93427.84;5041843;28;20195;-83
2021/12/10 06:23:50;;;;;;;5.78;4.60;;;1.20;78.40;;;-0.13;66.08;93414.66;5056780;28;20283;-82
2021/12/10 06:26:18;;;;;;;7.53;5.10;;;1.10;78.30;;;-0.23;66.14;93402.75;5056725;28;20223;-83
2021/12/10 06:28:45;;;;;;;7.18;4.82;;;1.10;78.30;;;-0.19;65.63;93418.69;5073310;28;20195;-83
2021/12/10 06:31:16;;;;;;;8.77;5.57;;;1.10;78.30;;;-0.22;65.86;93416.41;5073747;28;20199;-83
2021/12/10 06:33:44;;;;;;;5.88;4.97;;;1.10;78.30;;;-0.28;65.75;93417.88;5040107;28;20524;-83
2021/12/10 06:36:12;;;;;;;5.95;4.88;;;1.00;78.30;;;-0.32;65.86;93421.75;5056517;28;20210;-83
2021/12/10 06:38:40;;;;;;;6.32;4.85;;;1.00;78.30;;;-0.35;65.76;93419.50;5073436;28;20210;-83
2021/12/10 06:41:09;;;;;;;6.88;4.68;;;1.00;78.30;;;-0.46;65.96;93405.19;5056632;28;20621;-82
2021/12/10 06:43:37;;;;;;;6.70;4.65;;;0.90;78.20;;;-0.39;65.94;93410.47;5056949;28;20380;-82
2021/12/10 06:46:06;;;;;;;8.85;4.57;;;0.90;78.50;;;-0.43;66.10;93393.75;5052344;28;20283;-81
2021/12/10 06:48:35;;;;;;;5.70;4.30;;;0.90;78.40;;;-0.41;66.33;93396.97;5037025;28;20551;-83
2021/12/10 06:51:13;;;;;;;6.22;4.78;;;0.90;78.30;;;-0.41;66.24;93389.25;5036770;28;20226;-83
2021/12/10 06:53:43;;;;;;;7.30;4.60;;;0.80;78.40;;;-0.40;66.16;93394.22;5036166;28;20200;-83
2021/12/10 06:56:12;;;;;;;6.80;4.55;;;0.80;78.30;;;-0.44;65.95;93398.09;5052454;28;20751;-83
2021/12/10 06:58:41;;;;;;;6.30;4.85;;;0.80;78.20;;;-0.50;65.40;93402.13;5036275;28;20286;-83
2021/12/10 07:01:29;;;;;;;8.38;5.78;;;0.80;78.20;;;-0.59;65.37;93395.34;5053237;28;20207;-82
2021/12/10 07:03:59;;;;;;;6.72;5.07;;;0.80;78.20;;;-0.60;65.87;93403.25;5050563;28;20222;-83
2021/12/10 07:06:29;;;;;;;5.32;4.43;;;0.70;78.10;;;-0.63;65.83;93390.66;5036306;28;20238;-83
2021/12/10 07:08:59;;;;;;;5.68;4.63;;;0.70;78.10;;;-0.71;65.79;93389.72;5069153;28;20246;-83
2021/12/10 07:11:27;;;;;;;6.10;5.00;;;0.70;78.10;;;-0.70;65.78;93387.94;5072189;28;20191;-82
2021/12/10 07:13:57;;;;;;;5.57;4.40;;;0.60;78.00;;;-0.75;65.69;93378.13;5056366;28;20333;-83
2021/12/10 07:16:27;;;;;;;5.68;4.07;;;0.60;78.00;;;-0.83;65.84;93376.38;5056156;28;20218;-81
2021/12/10 07:18:58;;;;;;;6.70;4.85;;;0.50;78.00;;;-0.83;65.74;93384.09;5055813;28;20273;-83
2021/12/10 07:21:26;;;;;;;7.53;4.57;;;0.50;78.00;;;-0.85;65.87;93382.66;5054107;28;20648;-81
2021/12/10 07:23:54;;;;;;;7.35;5.20;;;0.60;78.00;;;-0.86;66.08;93386.97;5053233;28;20203;-82
2021/12/10 07:26:21;;;;;;;7.40;5.45;;;0.50;78.00;;;-0.88;66.00;93378.63;5052673;28;20318;-83
2021/12/10 07:28:48;;;;;;;6.95;5.10;;;0.40;78.00;;;-0.86;66.19;93378.47;5053314;28;20195;-83
2021/12/10 07:31:16;;;;;;;8.02;4.95;;;0.40;78.10;;;-0.95;66.02;93367.34;5070350;28;20226;-83
2021/12/10 07:33:43;;;;;;;7.25;5.85;;;0.40;78.20;;;-0.90;66.38;93377.97;5073180;28;20211;-82
2021/12/10 07:36:11;;;;;;;7.30;5.53;;;0.40;78.30;;;-0.79;66.41;93378.59;5055442;28;20699;-82
2021/12/10 07:38:38;;;;;;;7.65;5.32;;;0.40;78.50;;;-0.76;66.26;93381.66;5055297;28;20200;-83
2021/12/10 07:41:07;;;;;;;7.60;5.57;;;0.40;78.60;;;-0.69;66.20;93384.41;5055132;28;20290;-82
2021/12/10 07:43:36;;;;;;;9.15;5.70;;;0.40;78.70;;;-0.62;66.62;93379.41;5071088;28;20594;-83
2021/12/10 07:46:05;;;;;;;8.75;5.35;;;0.40;78.80;;;-0.60;66.31;93380.84;5055960;28;20206;-83
2021/12/10 07:48:35;;;;;;;8.95;5.53;;;0.50;78.90;;;-0.53;66.15;93370.72;5040165;28;20237;-82
2021/12/10 07:51:09;;;;;;;10.02;5.32;;;0.50;78.90;;;-0.50;66.33;93360.91;5040326;28;20206;-83
2021/12/10 07:53:39;;;;;;;7.80;5.43;;;0.50;78.90;;;-0.45;66.23;93367.34;5052516;28;20191;-83
2021/12/10 07:56:09;;;;;;;7.28;5.65;;;0.60;79.00;;;-0.42;66.24;93364.44;5040341;28;20272;-83
2021/12/10 07:58:40;;;;;;;9.65;6.18;;;0.60;78.90;;;-0.39;66.38;93364.94;5056046;28;20261;-84
2021/12/10 08:01:16;;;;;;;10.18;6.03;;;0.60;78.90;;;-0.36;66.19;93353.50;5054887;28;20195;-83
2021/12/10 08:03:44;;;;;;;9.18;6.25;;;0.70;79.00;;;-0.31;66.25;93355.56;5051438;28;20198;-83
2021/12/10 08:06:13;;;;;;;9.30;6.07;;;0.70;79.00;;;-0.27;66.33;93346.53;5054834;28;20195;-82
2021/12/10 08:08:41;;;;;;;11.15;6.30;;;0.80;79.10;;;-0.19;66.60;93339.59;5045884;28;20195;-82
2021/12/10 08:11:09;;;;;;;8.77;5.90;;;0.80;79.20;;;-0.13;66.45;93332.19;5036014;28;20192;-83
2021/12/10 08:13:36;;;;;;;10.13;6.50;;;0.90;79.40;;;-0.01;66.53;93329.06;5070416;28;20264;-82
2021/12/10 08:16:04;;;;;;;9.45;5.72;;;0.90;79.50;;;0.14;66.93;93323.22;5070070;28;20232;-81
2021/12/10 08:18:31;;;;;;;11.63;6.57;;;1.00;79.60;;;0.28;66.70;93329.44;5036165;28;20226;-82
2021/12/10 08:21:00;;;;;;;8.82;6.03;;;1.10;79.80;;;0.36;66.76;93323.47;5068580;28;20294;-81
2021/12/10 08:23:27;;;;;;;12.38;6.15;;;1.20;79.80;;;0.52;65.97;93327.72;5051510;28;20235;-82
2021/12/10 08:25:54;;;;;;;10.07;6.30;;;1.20;79.70;;;0.59;66.21;93319.13;5053110;28;20219;-82
2021/12/10 08:28:25;;;;;;;9.15;6.30;;;1.30;79.70;;;0.66;65.79;93319.28;5036290;28;20230;-83
2021/12/10 08:30:55;;;;;;;8.60;6.65;;;1.40;79.70;;;0.72;65.89;93312.59;5052908;28;20250;-81
2021/12/10 08:33:23;;;;;;;12.13;7.05;;;1.50;79.60;;;0.76;66.00;93303.56;5069079;28;20244;-82
2021/12/10 08:35:58;;;;;;;8.50;6.03;;;1.60;79.50;;;0.80;66.01;93299.66;5052081;28;20215;-82
2021/12/10 08:38:26;;;;;;;9.90;6.80;;;1.60;79.50;;;0.86;66.16;93298.19;5069649;28;20195;-81
2021/12/10 08:41:07;;;;;;;12.75;7.28;;;1.70;79.50;;;0.91;66.10;93295.88;5053803;28;20226;-81
2021/12/10 08:43:35;;;;;;;12.20;7.53;;;1.70;79.40;;;0.92;66.11;93287.16;5055448;28;20200;-81
2021/12/10 08:46:07;;;;;;;13.45;7.28;;;1.80;79.40;;;0.99;66.22;93292.41;5039177;28;20195;-81
2021/12/10 08:48:35;;;;;;;11.70;7.35;;;1.80;79.40;;;1.04;66.29;93293.53;5055472;28;20226;-82
2021/12/10 08:51:12;;;;;;;12.43;7.13;;;1.90;79.50;;;1.05;66.34;93276.22;5055368;28;20203;-81
2021/12/10 08:53:40;;;;;;;9.35;6.82;;;2.00;79.50;;;1.12;66.11;93271.97;5072221;28;20191;-81
2021/12/10 08:56:08;;;;;;;11.88;6.95;;;2.00;79.50;;;1.22;66.22;93275.13;5055214;28;20199;-82
2021/12/10 08:58:37;;;;;;;12.30;7.15;;;2.00;79.60;;;1.32;66.24;93286.97;5054405;28;20195;-82
2021/12/10 09:01:15;;;;;;;10.95;7.93;;;2.10;79.70;;;1.41;66.37;93270.44;5055169;28;20298;-81
2021/12/10 09:03:46;;;;;;;12.73;7.68;;;2.20;79.70;;;1.50;66.33;93271.97;5068302;28;20242;-82
2021/12/10 09:06:16;;;;;;;10.90;7.93;;;2.20;79.80;;;1.57;66.30;93267.69;5043280;28;20654;-82
2021/12/10 09:08:43;;;;;;;11.45;7.97;;;2.40;79.90;;;1.70;66.20;93261.91;5055248;28;20223;-81
2021/12/10 09:11:13;;;;;;;11.77;7.53;;;2.40;79.90;;;1.78;66.18;93255.84;5071502;28;20188;-82
2021/12/10 09:13:47;;;;;;;12.48;7.78;;;2.50;79.90;;;1.95;66.37;93251.28;5069169;28;20269;-82
2021/12/10 09:16:24;;;;;;;12.80;8.27;;;2.60;80.10;;;2.15;66.34;93253.31;5050681;28;20200;-80
2021/12/10 09:18:57;;;;;;;14.07;8.82;;;2.70;80.10;;;2.33;66.11;93248.56;5068832;28;20269;-81
2021/12/10 09:21:25;;;;;;;14.90;9.35;;;2.80;80.20;;;2.52;65.99;93244.56;5068129;28;20265;-81
2021/12/10 09:23:55;;;;;;;20.75;10.15;;;2.90;80.40;;;2.72;66.25;93233.59;5051890;28;20286;-81
2021/12/10 09:26:27;;;;;;;17.92;10.20;;;3.00;80.40;;;2.88;65.87;93225.59;5047974;28;20578;-81
2021/12/10 09:28:57;;;;;;;15.73;9.85;;;3.20;80.60;;;3.07;66.06;93222.56;5032089;28;20231;-82
2021/12/10 09:31:25;;;;;;;14.63;9.82;;;3.30;80.50;;;3.22;65.62;93219.88;5048177;28;20824;-81
2021/12/10 09:33:58;;;;;;;12.68;8.82;;;3.40;80.50;;;3.38;65.71;93211.78;5068241;28;20668;-81
2021/12/10 09:36:26;;;;;;;15.23;8.98;;;3.60;80.40;;;3.53;65.41;93203.94;5102834;28;20585;-81
2021/12/10 09:38:55;;;;;;;10.32;7.47;;;3.70;80.60;;;3.71;65.24;93200.03;5061639;28;20315;-82
2021/12/10 09:41:23;;;;;;;12.52;7.70;;;3.80;80.60;;;3.82;65.14;93191.69;5052733;28;20252;-81
2021/12/10 09:43:52;;;;;;;15.40;7.53;;;3.90;80.60;;;3.96;65.37;93182.19;5052447;28;20694;-81
2021/12/10 09:46:20;;;;;;;9.55;6.57;;;4.00;80.40;;;4.04;65.03;93184.63;5052449;28;20244;-81
2021/12/10 09:48:51;;;;;;;10.20;7.05;;;4.20;80.30;;;4.10;65.06;93186.44;5070746;28;20227;-81
2021/12/10 09:51:32;;;;;;;10.05;6.75;;;4.30;80.30;;;4.16;64.72;93179.66;5065436;28;20261;-81
2021/12/10 09:54:10;;;;;;;13.30;7.32;;;4.30;80.00;;;4.20;64.57;93173.09;5093389;28;20223;-82
2021/12/10 09:56:49;;;;;;;7.97;6.30;;;4.50;80.00;;;4.21;64.48;93174.69;5053405;28;20210;-82
2021/12/10 09:59:17;;;;;;;11.80;7.22;;;4.50;79.80;;;4.21;64.62;93164.31;5052231;28;20207;-82
2021/12/10 10:01:47;;;;;;;9.50;6.63;;;4.50;79.60;;;4.16;64.02;93149.31;5052668;28;20306;-82
2021/12/10 10:04:18;;;;;;;12.65;6.97;;;4.60;79.50;;;4.14;64.45;93155.72;5051981;28;20222;-82
2021/12/10 10:06:52;;;;;;;9.90;6.07;;;4.60;79.30;;;4.10;64.14;93157.06;5053459;28;20294;-81
2021/12/10 10:09:21;;;;;;;8.95;6.32;;;4.60;79.10;;;4.08;64.19;93154.69;5037541;28;20217;-81
2021/12/10 10:12:00;;;;;;;14.23;6.18;;;4.60;79.10;;;4.04;64.14;93148.28;5085450;28;20200;-81
2021/12/10 10:14:28;;;;;;;9.82;6.20;;;4.60;79.10;;;4.03;64.42;93144.09;5087742;28;20598;-82
2021/12/10 10:16:56;;;;;;;9.20;6.40;;;4.60;79.10;;;3.99;64.84;93133.31;5058265;28;20269;-82
2021/12/10 10:19:25;;;;;;;8.63;6.68;;;4.60;79.10;;;3.95;64.40;93120.94;5067375;28;20306;-82
2021/12/10 10:21:57;;;;;;;11.35;7.95;;;4.60;79.00;;;3.98;64.40;93116.16;5039372;28;20198;-81
2021/12/10 10:24:29;;;;;;;12.75;9.32;;;4.60;78.80;;;3.94;64.23;93127.09;5054012;28;20223;-82
2021/12/10 10:27:10;;;;;;;12.32;9.27;;;4.60;78.60;;;3.86;64.13;93117.72;5087579;28;20203;-82
2021/12/10 10:29:45;;;;;;;16.85;11.70;;;4.60;78.30;;;3.84;64.15;93109.31;5054347;28;20288;-83
2021/12/10 10:32:18;;;;;;;16.45;11.45;;;4.50;78.40;;;3.78;64.21;93102.31;5067183;28;20195;-82
2021/12/10 10:34:58;;;;;;;14.95;10.55;;;4.50;78.40;;;3.76;64.12;93104.31;5050714;28;20255;-82
2021/12/10 10:37:25;;;;;;;14.65;10.25;;;4.50;78.30;;;3.74;63.95;93104.50;5067586;28;20239;-81
2021/12/10 10:39:52;;;;;;;16.13;10.25;;;4.40;78.50;;;3.66;64.35;93091.69;5034190;28;20220;-82
2021/12/10 10:42:29;;;;;;;15.95;10.10;;;4.40;78.40;;;3.65;63.87;93096.09;5080218;28;20202;-81
2021/12/10 10:45:04;;;;;;;12.70;9.57;;;4.40;78.20;;;3.59;63.98;93088.28;5070157;28;20250;-82
2021/12/10 10:47:31;;;;;;;14.05;10.40;;;4.40;78.10;;;3.44;63.69;93078.06;5046223;28;20719;-82
2021/12/10 10:50:15;;;;;;;15.93;9.98;;;4.30;78.00;;;3.39;63.85;93080.44;5042556;28;20243;-83
2021/12/10 10:52:51;;;;;;;14.73;9.75;;;4.20;77.70;;;3.37;64.05;93080.66;5070304;28;20237;-83